Time;durP1;ratioP1;P1;durP2;ratioP2;P2;SDS_P1;SDS_P2;PMS_P1;PMS_P2;Temp;Humidity;BMP_temperature;BMP_pressure;BME280_temperature;BME280_humidity;BME280_pressure;Samples;Min_cycle;Max_cycle;Signal;HPM_P1;HPM_P2
2022/12/28 00:00:45;;;;;;;;;3.75;2.75;;;;;;;;5104097;27;61748;-77
2022/12/28 00:03:10;;;;;;;;;4.00;2.50;;;;;;;;5104377;27;61844;-77
2022/12/28 00:05:35;;;;;;;;;6.75;2.50;;;;;;;;5105253;27;61928;-77
2022/12/28 00:08:00;;;;;;;;;7.25;2.75;;;;;;;;5093460;27;62568;-77
2022/12/28 00:10:26;;;;;;;;;7.50;3.00;;;;;;;;5084969;28;61888;-77
2022/12/28 00:12:51;;;;;;;;;2.00;2.00;;;;;;;;5083271;28;61739;-77
2022/12/28 00:15:16;;;;;;;;;2.00;2.00;;;;;;;;5085045;28;61711;-77
2022/12/28 00:17:41;;;;;;;;;4.50;2.25;;;;;;;;5082621;28;62710;-78
2022/12/28 00:20:07;;;;;;;;;1.00;1.00;;;;;;;;5084510;28;61829;-78
2022/12/28 00:22:32;;;;;;;;;3.75;1.25;;;;;;;;5085032;28;61885;-77
2022/12/28 00:24:57;;;;;;;;;2.50;1.75;;;;;;;;5084459;28;62139;-77
2022/12/28 00:27:23;;;;;;;;;3.00;2.00;;;;;;;;5082381;28;63601;-77
2022/12/28 00:29:48;;;;;;;;;3.75;2.00;;;;;;;;5084557;28;62026;-77
2022/12/28 00:32:13;;;;;;;;;1.00;1.00;;;;;;;;5083148;28;61880;-77
2022/12/28 00:34:38;;;;;;;;;2.00;2.00;;;;;;;;5084789;28;61765;-77
2022/12/28 00:37:04;;;;;;;;;2.50;2.00;;;;;;;;5084076;28;61795;-77
2022/12/28 00:39:29;;;;;;;;;2.50;0.00;;;;;;;;5083648;28;62110;-77
2022/12/28 00:41:54;;;;;;;;;3.50;2.00;;;;;;;;5082794;28;62065;-77
2022/12/28 00:44:19;;;;;;;;;2.00;1.50;;;;;;;;5084569;27;61924;-77
2022/12/28 00:46:45;;;;;;;;;1.25;0.75;;;;;;;;5082230;28;63841;-77
2022/12/28 00:49:10;;;;;;;;;2.25;2.00;;;;;;;;5082689;28;62085;-77
2022/12/28 00:51:35;;;;;;;;;3.50;2.00;;;;;;;;5084136;28;61792;-78
2022/12/28 00:54:01;;;;;;;;;4.00;1.50;;;;;;;;5084022;27;61754;-77
2022/12/28 00:56:26;;;;;;;;;2.00;2.00;;;;;;;;5083459;28;61883;-77
2022/12/28 00:58:56;;;;;;;;;2.00;2.00;;;;;;;;5084120;28;61932;-78
2022/12/28 01:01:22;;;;;;;;;3.50;2.50;;;;;;;;5084174;28;61804;-77
2022/12/28 01:03:47;;;;;;;;;2.00;1.25;;;;;;;;5082868;28;62245;-78
2022/12/28 01:06:13;;;;;;;;;3.00;1.25;;;;;;;;5081824;28;64971;-78
2022/12/28 01:08:39;;;;;;;;;2.00;2.00;;;;;;;;5083401;27;61842;-77
2022/12/28 01:11:13;;;;;;;;;3.00;2.00;;;;;;;;5083811;28;61775;-77
2022/12/28 01:13:39;;;;;;;;;2.00;2.00;;;;;;;;5082554;28;61687;-77
2022/12/28 01:16:14;;;;;;;;;2.75;1.75;;;;;;;;5083214;28;61844;-77
2022/12/28 01:18:39;;;;;;;;;2.50;1.25;;;;;;;;5083776;28;61772;-77
2022/12/28 01:21:12;;;;;;;;;2.75;2.00;;;;;;;;5082401;28;61805;-77
2022/12/28 01:23:37;;;;;;;;;3.50;2.50;;;;;;;;5083924;27;61806;-77
2022/12/28 01:26:03;;;;;;;;;6.50;2.50;;;;;;;;5081378;28;65064;-77
2022/12/28 01:28:28;;;;;;;;;6.25;2.00;;;;;;;;5083937;28;61764;-77
2022/12/28 01:30:53;;;;;;;;;2.25;1.25;;;;;;;;5081973;28;61882;-77
2022/12/28 01:33:19;;;;;;;;;2.00;2.00;;;;;;;;5084044;28;61779;-77
2022/12/28 01:35:44;;;;;;;;;4.00;3.00;;;;;;;;5082828;28;62009;-77
2022/12/28 01:38:09;;;;;;;;;2.25;2.25;;;;;;;;5083089;28;61773;-77
2022/12/28 01:40:34;;;;;;;;;4.00;2.75;;;;;;;;5082162;28;61857;-77
2022/12/28 01:43:00;;;;;;;;;4.75;2.00;;;;;;;;5083538;28;61908;-77
2022/12/28 01:45:25;;;;;;;;;4.00;3.00;;;;;;;;5081516;28;63595;-77
2022/12/28 01:47:53;;;;;;;;;2.00;2.00;;;;;;;;5083516;28;61995;-77
2022/12/28 01:50:22;;;;;;;;;2.00;1.00;;;;;;;;5082152;28;61756;-77
2022/12/28 01:52:59;;;;;;;;;3.50;2.00;;;;;;;;5083412;28;61707;-77
2022/12/28 01:55:26;;;;;;;;;4.00;3.00;;;;;;;;5082387;28;61786;-77
2022/12/28 01:57:58;;;;;;;;;1.00;1.00;;;;;;;;5083326;28;61837;-78
2022/12/28 02:00:23;;;;;;;;;5.50;2.00;;;;;;;;5083144;28;61972;-77
2022/12/28 02:03:01;;;;;;;;;1.25;1.25;;;;;;;;5083302;28;61933;-77
2022/12/28 02:05:28;;;;;;;;;6.50;2.00;;;;;;;;5081032;28;63839;-77
2022/12/28 02:08:06;;;;;;;;;4.00;2.00;;;;;;;;5084603;27;61737;-78
2022/12/28 02:10:32;;;;;;;;;0.50;0.50;;;;;;;;5083026;28;61696;-77
2022/12/28 02:12:59;;;;;;;;;2.50;2.00;;;;;;;;5083063;27;61707;-77
2022/12/28 02:15:24;;;;;;;;;3.00;2.00;;;;;;;;5081194;28;63813;-77
2022/12/28 02:17:50;;;;;;;;;2.50;2.00;;;;;;;;5083078;28;61721;-77
2022/12/28 02:20:16;;;;;;;;;2.00;1.75;;;;;;;;5081377;28;62183;-77
2022/12/28 02:23:00;;;;;;;;;3.25;3.00;;;;;;;;5083203;28;61890;-78
2022/12/28 02:25:51;;;;;;;;;2.00;1.75;;;;;;;;5082350;27;61974;-77
2022/12/28 02:28:35;;;;;;;;;3.00;1.75;;;;;;;;5081600;28;61760;-77
2022/12/28 02:31:09;;;;;;;;;1.25;1.25;;;;;;;;5081426;28;62204;-78
2022/12/28 02:33:39;;;;;;;;;1.75;1.75;;;;;;;;5083181;27;61753;-77
2022/12/28 02:36:07;;;;;;;;;5.00;2.75;;;;;;;;5081886;28;61818;-78
2022/12/28 02:38:56;;;;;;;;;1.00;1.00;;;;;;;;5080869;28;61951;-77
2022/12/28 02:41:23;;;;;;;;;4.00;2.00;;;;;;;;5082953;28;61784;-77
2022/12/28 02:43:48;;;;;;;;;1.50;1.50;;;;;;;;5082904;27;62286;-78
2022/12/28 02:52:07;;;;;;;;;2.00;2.00;;;;;;;;5082567;28;61886;-77
2022/12/28 02:57:36;;;;;;;;;2.75;1.50;;;;;;;;5081964;28;61903;-77
2022/12/28 03:00:33;;;;;;;;;1.75;1.75;;;;;;;;5082549;28;61973;-78
2022/12/28 03:03:19;;;;;;;;;1.50;0.50;;;;;;;;5072682;28;61805;-78
2022/12/28 03:08:37;;;;;;;;;2.25;1.50;;;;;;;;5086548;27;62276;-78
2022/12/28 03:11:09;;;;;;;;;2.25;1.50;;;;;;;;5085825;28;61840;-77
2022/12/28 03:13:50;;;;;;;;;1.25;1.25;;;;;;;;5084546;28;61960;-78
2022/12/28 03:16:21;;;;;;;;;4.00;2.25;;;;;;;;5085750;28;62148;-77
2022/12/28 03:33:00;;;;;;;;;1.75;1.75;;;;;;;;5085542;28;61829;-78
2022/12/28 03:35:46;;;;;;;;;0.75;0.00;;;;;;;;5083912;28;61995;-77
2022/12/28 03:38:25;;;;;;;;;6.00;2.00;;;;;;;;5084635;28;61827;-78
2022/12/28 03:40:51;;;;;;;;;2.75;1.25;;;;;;;;5083456;28;64554;-78
2022/12/28 03:43:39;;;;;;;;;4.25;2.50;;;;;;;;5084046;28;61799;-78
2022/12/28 03:46:14;;;;;;;;;2.50;2.00;;;;;;;;5085131;28;61804;-77
2022/12/28 03:48:39;;;;;;;;;2.00;2.00;;;;;;;;5083925;28;62130;-77
2022/12/28 03:51:05;;;;;;;;;2.50;2.00;;;;;;;;5082955;28;63749;-77
2022/12/28 03:53:44;;;;;;;;;4.00;2.00;;;;;;;;5085074;28;61737;-78
2022/12/28 03:56:13;;;;;;;;;2.50;2.00;;;;;;;;5083501;28;61821;-78
2022/12/28 03:58:39;;;;;;;;;4.00;3.00;;;;;;;;5084251;28;61793;-77
2022/12/28 04:01:04;;;;;;;;;3.00;1.50;;;;;;;;5084333;28;62827;-78
2022/12/28 04:03:30;;;;;;;;;5.00;4.00;;;;;;;;5085140;28;61753;-78
2022/12/28 04:05:55;;;;;;;;;2.50;2.50;;;;;;;;5084939;28;62277;-78
2022/12/28 04:08:20;;;;;;;;;2.00;1.25;;;;;;;;5084319;27;61784;-77
2022/12/28 04:10:46;;;;;;;;;2.00;2.00;;;;;;;;5084326;28;61875;-78
2022/12/28 04:13:11;;;;;;;;;2.00;2.00;;;;;;;;5084051;27;61904;-77
2022/12/28 04:15:36;;;;;;;;;2.00;2.00;;;;;;;;5084918;28;62098;-77
2022/12/28 04:18:02;;;;;;;;;3.00;2.00;;;;;;;;5085228;28;61977;-78
2022/12/28 04:20:27;;;;;;;;;5.00;2.00;;;;;;;;5083942;27;61851;-77
2022/12/28 04:22:52;;;;;;;;;3.50;2.50;;;;;;;;5084587;28;61825;-77
2022/12/28 04:25:18;;;;;;;;;1.00;1.00;;;;;;;;5084361;28;61859;-78
2022/12/28 04:27:43;;;;;;;;;3.25;2.25;;;;;;;;5083613;28;62070;-78
2022/12/28 04:30:08;;;;;;;;;3.00;3.00;;;;;;;;5083798;28;61943;-77
2022/12/28 04:32:34;;;;;;;;;3.50;3.50;;;;;;;;5084747;28;61757;-78
2022/12/28 04:35:00;;;;;;;;;2.75;2.00;;;;;;;;5082963;28;61846;-77
2022/12/28 04:37:25;;;;;;;;;2.50;1.25;;;;;;;;5084729;27;61848;-77
2022/12/28 04:39:50;;;;;;;;;2.00;2.00;;;;;;;;5083710;28;62658;-77
2022/12/28 04:42:15;;;;;;;;;3.25;1.00;;;;;;;;5084289;28;61891;-78
2022/12/28 04:44:41;;;;;;;;;2.75;2.00;;;;;;;;5084538;28;61748;-78
2022/12/28 04:47:06;;;;;;;;;1.00;1.00;;;;;;;;5084575;28;61985;-77
2022/12/28 04:49:31;;;;;;;;;3.00;3.00;;;;;;;;5083237;28;61926;-78
2022/12/28 04:51:56;;;;;;;;;2.00;2.00;;;;;;;;5084406;28;61793;-77
2022/12/28 04:54:21;;;;;;;;;5.00;1.50;;;;;;;;5083599;28;61972;-77
2022/12/28 04:56:47;;;;;;;;;1.75;1.75;;;;;;;;5083025;28;61915;-77
2022/12/28 04:59:12;;;;;;;;;1.00;1.00;;;;;;;;5083676;28;61670;-78
2022/12/28 05:01:37;;;;;;;;;3.00;2.00;;;;;;;;5084136;28;61928;-78
2022/12/28 05:04:03;;;;;;;;;1.25;1.00;;;;;;;;5082577;28;61836;-78
2022/12/28 05:06:28;;;;;;;;;3.00;1.75;;;;;;;;5083948;28;62184;-78
2022/12/28 05:08:54;;;;;;;;;3.00;1.00;;;;;;;;5103529;27;62617;-77
2022/12/28 05:11:20;;;;;;;;;5.00;2.75;;;;;;;;5104350;27;61714;-77
2022/12/28 05:13:46;;;;;;;;;2.00;2.00;;;;;;;;5104568;27;61797;-77
2022/12/28 05:16:12;;;;;;;;;2.00;2.00;;;;;;;;5103020;27;61883;-78
2022/12/28 05:18:38;;;;;;;;;2.25;2.00;;;;;;;;5103333;27;61798;-77
2022/12/28 05:21:04;;;;;;;;;3.50;2.25;;;;;;;;5102842;27;61767;-77
2022/12/28 05:23:30;;;;;;;;;3.50;1.00;;;;;;;;5104043;27;61892;-77
2022/12/28 05:25:55;;;;;;;;;1.25;1.25;;;;;;;;5103344;27;62150;-78
2022/12/28 05:28:21;;;;;;;;;4.00;1.00;;;;;;;;5103553;27;61955;-77
2022/12/28 05:30:46;;;;;;;;;3.25;1.50;;;;;;;;5103936;27;61672;-77
2022/12/28 05:33:11;;;;;;;;;2.25;2.00;;;;;;;;5104165;27;61953;-77
2022/12/28 05:35:37;;;;;;;;;2.00;2.00;;;;;;;;5104188;27;62933;-78
2022/12/28 05:38:02;;;;;;;;;1.50;1.50;;;;;;;;5103381;27;62907;-77
2022/12/28 05:40:27;;;;;;;;;5.00;2.00;;;;;;;;5103674;27;62266;-77
2022/12/28 05:42:53;;;;;;;;;3.00;2.00;;;;;;;;5104059;27;61938;-78
2022/12/28 05:45:18;;;;;;;;;7.75;2.00;;;;;;;;5102484;27;61774;-77
2022/12/28 05:47:43;;;;;;;;;3.25;2.50;;;;;;;;5103146;27;62744;-77
2022/12/28 05:50:08;;;;;;;;;3.00;1.75;;;;;;;;5103615;27;62131;-77
2022/12/28 05:52:35;;;;;;;;;1.50;1.25;;;;;;;;5103830;27;61864;-77
2022/12/28 05:55:00;;;;;;;;;4.50;1.25;;;;;;;;5103702;27;61739;-77
2022/12/28 05:57:25;;;;;;;;;2.75;0.75;;;;;;;;5103063;27;62908;-77
2022/12/28 05:59:51;;;;;;;;;2.25;2.25;;;;;;;;5103993;27;61725;-77
2022/12/28 06:02:16;;;;;;;;;2.50;2.50;;;;;;;;5103744;27;61953;-77
2022/12/28 06:04:41;;;;;;;;;2.50;1.00;;;;;;;;5103744;27;61843;-78
2022/12/28 06:07:06;;;;;;;;;3.00;1.75;;;;;;;;5097193;27;61992;-78
2022/12/28 06:09:32;;;;;;;;;1.00;1.00;;;;;;;;5083631;28;62104;-77
2022/12/28 06:11:57;;;;;;;;;4.00;1.00;;;;;;;;5082003;28;61894;-77
2022/12/28 06:14:22;;;;;;;;;1.00;1.00;;;;;;;;5083176;28;62278;-77
2022/12/28 06:16:48;;;;;;;;;1.00;1.00;;;;;;;;5080767;28;63860;-77
2022/12/28 06:19:14;;;;;;;;;1.50;1.50;;;;;;;;5083166;28;62430;-77
2022/12/28 06:21:40;;;;;;;;;1.75;1.00;;;;;;;;5082936;28;62133;-77
2022/12/28 06:24:05;;;;;;;;;2.25;2.00;;;;;;;;5082778;28;62083;-77
2022/12/28 06:26:31;;;;;;;;;2.00;2.00;;;;;;;;5080944;28;64628;-77
2022/12/28 06:28:57;;;;;;;;;1.50;1.00;;;;;;;;5083167;27;61852;-77
2022/12/28 06:31:24;;;;;;;;;1.00;1.00;;;;;;;;5082599;27;61712;-77
2022/12/28 06:33:53;;;;;;;;;5.50;3.00;;;;;;;;5083185;27;61910;-77
2022/12/28 06:36:20;;;;;;;;;3.75;1.00;;;;;;;;5082217;27;61770;-77
2022/12/28 06:38:45;;;;;;;;;1.00;1.00;;;;;;;;5084835;28;62187;-77
2022/12/28 06:41:11;;;;;;;;;2.00;2.00;;;;;;;;5086646;27;61697;-77
2022/12/28 06:43:38;;;;;;;;;1.75;1.50;;;;;;;;5084958;28;61889;-77
2022/12/28 06:46:04;;;;;;;;;2.00;2.00;;;;;;;;5084026;28;63908;-77
2022/12/28 06:48:30;;;;;;;;;6.00;2.25;;;;;;;;5086377;28;62015;-77
2022/12/28 06:50:59;;;;;;;;;1.75;0.50;;;;;;;;5086039;28;61733;-77
2022/12/28 06:53:26;;;;;;;;;4.00;2.00;;;;;;;;5086032;28;61856;-77
2022/12/28 06:55:55;;;;;;;;;4.75;2.25;;;;;;;;5083906;28;63719;-77
2022/12/28 06:58:21;;;;;;;;;3.00;1.50;;;;;;;;5084478;28;61892;-77
2022/12/28 07:00:46;;;;;;;;;2.00;2.00;;;;;;;;5085993;27;62066;-77
2022/12/28 07:03:11;;;;;;;;;2.00;2.00;;;;;;;;5086353;28;61833;-77
2022/12/28 07:05:37;;;;;;;;;3.00;1.00;;;;;;;;5085013;28;61781;-77
2022/12/28 07:08:02;;;;;;;;;2.50;1.75;;;;;;;;5085602;27;62113;-77
2022/12/28 07:10:27;;;;;;;;;1.00;0.50;;;;;;;;5085756;28;61968;-77
2022/12/28 07:12:52;;;;;;;;;1.00;0.25;;;;;;;;5084541;28;61732;-77
2022/12/28 07:15:17;;;;;;;;;2.00;2.00;;;;;;;;5085191;28;61893;-77
2022/12/28 07:17:43;;;;;;;;;2.25;2.25;;;;;;;;5083969;28;61773;-77
2022/12/28 07:20:08;;;;;;;;;1.75;1.25;;;;;;;;5085546;28;61742;-77
2022/12/28 07:22:34;;;;;;;;;3.50;1.00;;;;;;;;5085848;27;62131;-77
2022/12/28 07:24:59;;;;;;;;;5.00;2.00;;;;;;;;5085001;28;62751;-77
2022/12/28 07:27:24;;;;;;;;;3.50;2.00;;;;;;;;5085174;28;62008;-77
2022/12/28 07:29:49;;;;;;;;;1.00;1.00;;;;;;;;5085718;28;61980;-78
2022/12/28 07:32:15;;;;;;;;;2.25;0.25;;;;;;;;5084304;28;62046;-78
2022/12/28 07:34:40;;;;;;;;;1.00;1.00;;;;;;;;5084906;28;61972;-77
2022/12/28 07:37:05;;;;;;;;;0.00;0.00;;;;;;;;5085451;28;62021;-77
2022/12/28 07:39:30;;;;;;;;;2.00;1.50;;;;;;;;5085379;28;61936;-77
2022/12/28 07:41:55;;;;;;;;;2.50;2.00;;;;;;;;5085546;28;61743;-77
2022/12/28 07:44:21;;;;;;;;;1.75;0.50;;;;;;;;5084770;28;61956;-77
2022/12/28 07:46:46;;;;;;;;;2.75;2.00;;;;;;;;5085074;28;62054;-77
2022/12/28 07:49:11;;;;;;;;;4.00;2.75;;;;;;;;5083987;28;61874;-77
2022/12/28 07:51:37;;;;;;;;;1.75;1.75;;;;;;;;5083782;28;61726;-77
2022/12/28 07:54:03;;;;;;;;;2.50;2.50;;;;;;;;5082959;28;63517;-77
2022/12/28 07:56:29;;;;;;;;;2.00;1.75;;;;;;;;5083428;28;61956;-77
2022/12/28 07:58:56;;;;;;;;;3.00;1.75;;;;;;;;5083708;28;61821;-77
2022/12/28 08:01:22;;;;;;;;;1.00;1.00;;;;;;;;5083952;28;61954;-77
2022/12/28 08:03:47;;;;;;;;;3.00;2.00;;;;;;;;5083149;28;64134;-78
2022/12/28 08:06:13;;;;;;;;;3.00;2.00;;;;;;;;5084890;28;61826;-77
2022/12/28 08:08:39;;;;;;;;;3.50;1.00;;;;;;;;5084748;27;62112;-77
2022/12/28 08:11:05;;;;;;;;;1.25;1.25;;;;;;;;5083615;28;61877;-77
2022/12/28 08:13:32;;;;;;;;;4.25;2.00;;;;;;;;5082799;28;63690;-77
2022/12/28 08:15:57;;;;;;;;;1.25;1.00;;;;;;;;5084614;27;61705;-77
2022/12/28 08:18:22;;;;;;;;;3.00;0.75;;;;;;;;5083538;28;61732;-77
2022/12/28 08:20:47;;;;;;;;;1.00;1.00;;;;;;;;5084600;28;61683;-77
2022/12/28 08:23:13;;;;;;;;;2.00;2.00;;;;;;;;5082598;28;65035;-77
2022/12/28 08:25:38;;;;;;;;;3.00;1.50;;;;;;;;5084517;28;61701;-77
2022/12/28 08:28:03;;;;;;;;;1.00;1.00;;;;;;;;5083395;28;61859;-77
2022/12/28 08:30:29;;;;;;;;;1.75;1.00;;;;;;;;5085004;28;61884;-78
2022/12/28 08:32:54;;;;;;;;;3.00;2.00;;;;;;;;5083820;28;62815;-77
2022/12/28 08:35:19;;;;;;;;;2.25;2.25;;;;;;;;5084610;28;61705;-77
2022/12/28 08:37:44;;;;;;;;;2.50;1.00;;;;;;;;5084541;28;61712;-77
2022/12/28 08:40:10;;;;;;;;;1.50;1.25;;;;;;;;5084128;28;61710;-77
2022/12/28 08:42:35;;;;;;;;;3.00;2.75;;;;;;;;5082526;28;64480;-77
2022/12/28 08:45:00;;;;;;;;;2.00;2.00;;;;;;;;5083122;28;61833;-77
2022/12/28 08:47:26;;;;;;;;;4.25;2.00;;;;;;;;5084179;27;61901;-77
2022/12/28 08:49:51;;;;;;;;;1.25;1.00;;;;;;;;5084601;28;61962;-77
2022/12/28 08:52:16;;;;;;;;;3.00;1.25;;;;;;;;5082422;28;63745;-77
2022/12/28 08:54:41;;;;;;;;;2.00;2.00;;;;;;;;5082416;28;61980;-77
2022/12/28 08:57:07;;;;;;;;;3.25;1.50;;;;;;;;5082994;28;62049;-77
2022/12/28 08:59:32;;;;;;;;;3.00;2.00;;;;;;;;5084423;28;61802;-77
2022/12/28 09:01:57;;;;;;;;;1.00;1.00;;;;;;;;5083708;28;61868;-77
2022/12/28 09:04:22;;;;;;;;;2.00;2.00;;;;;;;;5082936;28;61753;-77
2022/12/28 09:06:48;;;;;;;;;2.25;2.25;;;;;;;;5086423;27;61790;-77
2022/12/28 09:09:15;;;;;;;;;0.50;0.50;;;;;;;;5104376;27;61714;-77
2022/12/28 09:11:40;;;;;;;;;2.00;2.00;;;;;;;;5102462;27;63937;-77
2022/12/28 09:14:07;;;;;;;;;1.00;1.00;;;;;;;;5104383;27;61877;-77
2022/12/28 09:16:33;;;;;;;;;2.50;2.25;;;;;;;;5102969;27;61855;-77
2022/12/28 09:19:00;;;;;;;;;1.25;1.25;;;;;;;;5104377;27;62181;-77
2022/12/28 09:21:27;;;;;;;;;1.25;1.25;;;;;;;;5103788;27;62601;-77
2022/12/28 09:23:53;;;;;;;;;1.25;1.25;;;;;;;;5103775;27;62022;-77
2022/12/28 09:26:19;;;;;;;;;3.50;3.50;;;;;;;;5102774;27;61935;-77
2022/12/28 09:28:46;;;;;;;;;2.25;1.00;;;;;;;;5104544;27;61871;-77
2022/12/28 09:31:11;;;;;;;;;2.00;1.00;;;;;;;;5103687;27;61840;-77
2022/12/28 09:36:21;;;;;;;;;3.75;1.00;;;;;;;;5103908;27;61852;-78
2022/12/28 09:38:47;;;;;;;;;0.50;0.50;;;;;;;;5103919;27;62072;-77
2022/12/28 09:41:27;;;;;;;;;1.75;1.75;;;;;;;;5103752;27;61824;-77
2022/12/28 09:44:15;;;;;;;;;1.75;1.00;;;;;;;;5102615;27;61960;-77
2022/12/28 09:46:46;;;;;;;;;3.00;1.25;;;;;;;;5099966;27;62148;-77
2022/12/28 09:49:14;;;;;;;;;3.50;3.25;;;;;;;;5103951;27;61904;-77
2022/12/28 09:51:42;;;;;;;;;1.00;1.00;;;;;;;;5103045;27;62033;-77
2022/12/28 09:54:07;;;;;;;;;1.75;1.00;;;;;;;;5103116;27;62033;-77
2022/12/28 09:56:37;;;;;;;;;3.50;2.00;;;;;;;;5103864;27;61932;-77
2022/12/28 09:59:04;;;;;;;;;2.00;1.00;;;;;;;;5102472;27;61854;-77
2022/12/28 10:01:29;;;;;;;;;2.00;2.00;;;;;;;;5101856;27;63666;-77
2022/12/28 10:03:56;;;;;;;;;2.00;2.00;;;;;;;;5103768;27;61790;-77
2022/12/28 10:06:26;;;;;;;;;1.25;1.25;;;;;;;;5103365;27;61867;-77
2022/12/28 10:08:52;;;;;;;;;5.00;2.00;;;;;;;;5081886;27;61753;-77
2022/12/28 10:11:27;;;;;;;;;2.75;1.25;;;;;;;;5081628;27;61767;-77
2022/12/28 10:13:56;;;;;;;;;2.50;1.25;;;;;;;;5083268;27;61882;-77
2022/12/28 10:16:23;;;;;;;;;2.00;2.00;;;;;;;;5082980;27;61785;-77
2022/12/28 10:18:48;;;;;;;;;2.00;2.00;;;;;;;;5083127;28;61742;-77
2022/12/28 10:21:15;;;;;;;;;3.00;2.00;;;;;;;;5082461;27;61770;-77
2022/12/28 10:23:41;;;;;;;;;2.25;2.00;;;;;;;;5082237;27;61719;-77
2022/12/28 10:26:11;;;;;;;;;2.50;2.00;;;;;;;;5081397;28;61754;-77
2022/12/28 10:28:42;;;;;;;;;1.00;1.00;;;;;;;;5081834;28;61853;-77
2022/12/28 10:31:11;;;;;;;;;1.75;1.00;;;;;;;;5080843;28;63886;-77
2022/12/28 10:33:41;;;;;;;;;1.00;1.00;;;;;;;;5082823;27;61940;-77
2022/12/28 10:36:11;;;;;;;;;3.00;2.00;;;;;;;;5082373;27;61792;-77
2022/12/28 10:38:37;;;;;;;;;2.75;1.50;;;;;;;;5082747;27;61755;-77
2022/12/28 10:41:08;;;;;;;;;2.00;1.00;;;;;;;;5082207;27;61863;-77
2022/12/28 10:43:39;;;;;;;;;2.75;1.75;;;;;;;;5082541;27;61821;-77
2022/12/28 10:46:06;;;;;;;;;1.25;1.25;;;;;;;;5081132;28;61928;-77
2022/12/28 10:48:35;;;;;;;;;0.00;0.00;;;;;;;;5081714;28;62202;-77
2022/12/28 10:51:13;;;;;;;;;2.25;1.75;;;;;;;;5081709;27;62685;-77
2022/12/28 10:53:38;;;;;;;;;2.00;2.00;;;;;;;;5082295;28;61708;-77
2022/12/28 10:56:09;;;;;;;;;1.00;1.00;;;;;;;;5082643;27;61825;-77
2022/12/28 10:58:35;;;;;;;;;2.75;1.75;;;;;;;;5082913;27;61834;-77
2022/12/28 11:01:05;;;;;;;;;1.25;1.25;;;;;;;;5081737;27;61746;-77
2022/12/28 11:03:34;;;;;;;;;1.75;1.75;;;;;;;;5082386;27;61761;-77
2022/12/28 11:06:13;;;;;;;;;1.00;1.00;;;;;;;;5082664;27;61932;-78
2022/12/28 11:08:39;;;;;;;;;1.00;1.00;;;;;;;;5099925;27;62019;-77
2022/12/28 11:11:05;;;;;;;;;2.00;2.00;;;;;;;;5102244;27;61820;-77
2022/12/28 11:13:30;;;;;;;;;3.50;0.50;;;;;;;;5102601;27;61705;-77
2022/12/28 11:15:55;;;;;;;;;3.25;1.00;;;;;;;;5101622;27;61889;-78
2022/12/28 11:18:21;;;;;;;;;1.00;1.00;;;;;;;;5102697;27;61741;-77
2022/12/28 11:20:52;;;;;;;;;3.00;1.00;;;;;;;;5100292;27;64186;-77
2022/12/28 11:23:20;;;;;;;;;2.00;1.00;;;;;;;;5102780;27;61903;-77
2022/12/28 11:25:45;;;;;;;;;4.00;0.50;;;;;;;;5106256;27;62138;-77
2022/12/28 11:28:12;;;;;;;;;2.00;2.00;;;;;;;;5106213;27;61809;-77
2022/12/28 11:30:37;;;;;;;;;5.75;0.75;;;;;;;;5104307;27;64767;-77
2022/12/28 11:33:08;;;;;;;;;1.00;1.00;;;;;;;;5106121;27;61764;-77
2022/12/28 11:35:35;;;;;;;;;1.00;1.00;;;;;;;;5105581;27;61699;-77
2022/12/28 11:38:02;;;;;;;;;1.00;1.00;;;;;;;;5106154;27;61683;-77
2022/12/28 11:40:42;;;;;;;;;1.00;1.00;;;;;;;;5103833;27;63647;-78
2022/12/28 11:43:26;;;;;;;;;2.75;1.00;;;;;;;;5104731;27;61760;-77
2022/12/28 11:45:53;;;;;;;;;1.75;0.75;;;;;;;;5104727;27;61720;-77
2022/12/28 11:48:37;;;;;;;;;1.00;1.00;;;;;;;;5105974;27;61743;-78
2022/12/28 11:51:03;;;;;;;;;2.00;2.00;;;;;;;;5105024;27;62538;-77
2022/12/28 11:53:32;;;;;;;;;1.50;0.25;;;;;;;;5105219;27;61705;-77
2022/12/28 11:55:57;;;;;;;;;2.25;1.00;;;;;;;;5105930;27;61807;-77
2022/12/28 11:58:32;;;;;;;;;1.00;1.00;;;;;;;;5105698;27;61880;-77
2022/12/28 12:01:03;;;;;;;;;2.50;2.00;;;;;;;;5105209;27;61803;-77
2022/12/28 12:03:47;;;;;;;;;1.50;1.00;;;;;;;;5105264;27;61659;-77
2022/12/28 12:06:12;;;;;;;;;0.75;0.75;;;;;;;;5105592;27;61955;-77
2022/12/28 12:08:38;;;;;;;;;2.25;2.00;;;;;;;;5089195;27;62149;-77
2022/12/28 12:11:27;;;;;;;;;1.50;1.50;;;;;;;;5084148;27;61758;-77
2022/12/28 12:13:53;;;;;;;;;2.00;1.00;;;;;;;;5085048;27;61820;-77
2022/12/28 12:16:26;;;;;;;;;2.00;1.25;;;;;;;;5084905;27;62181;-77
2022/12/28 12:18:54;;;;;;;;;1.00;1.00;;;;;;;;5083341;28;61824;-77
2022/12/28 12:21:51;;;;;;;;;1.25;1.00;;;;;;;;5082879;28;63870;-78
2022/12/28 12:24:25;;;;;;;;;1.50;1.00;;;;;;;;5071742;28;62075;-78
2022/12/28 12:27:09;;;;;;;;;1.00;1.00;;;;;;;;5084728;27;61881;-77
2022/12/28 12:29:43;;;;;;;;;2.00;2.00;;;;;;;;5084863;27;61711;-77
2022/12/28 12:32:14;;;;;;;;;0.75;0.75;;;;;;;;5083830;27;61922;-77
2022/12/28 12:34:42;;;;;;;;;4.00;1.25;;;;;;;;5084060;27;61781;-77
2022/12/28 12:37:27;;;;;;;;;2.00;0.00;;;;;;;;5084667;27;61805;-77
2022/12/28 12:40:08;;;;;;;;;1.00;1.00;;;;;;;;5084694;27;61824;-77
2022/12/28 12:42:36;;;;;;;;;1.00;1.00;;;;;;;;5083952;27;61728;-77
2022/12/28 12:45:24;;;;;;;;;1.75;1.25;;;;;;;;5083133;28;61785;-78
2022/12/28 12:48:05;;;;;;;;;2.50;1.50;;;;;;;;5085045;27;61785;-78
2022/12/28 12:50:49;;;;;;;;;1.00;1.00;;;;;;;;5083046;28;61741;-77
2022/12/28 12:53:17;;;;;;;;;4.25;1.00;;;;;;;;5083907;27;61802;-77
2022/12/28 12:55:48;;;;;;;;;1.00;1.00;;;;;;;;5083894;28;61808;-77
2022/12/28 12:58:29;;;;;;;;;2.75;2.75;;;;;;;;5082507;28;61794;-77
2022/12/28 13:01:01;;;;;;;;;1.00;1.00;;;;;;;;5084365;27;61915;-77
2022/12/28 13:03:33;;;;;;;;;1.00;1.00;;;;;;;;5083653;28;61855;-77
2022/12/28 13:05:58;;;;;;;;;3.75;2.50;;;;;;;;5084176;27;61765;-77
2022/12/28 13:08:32;;;;;;;;;1.25;1.25;;;;;;;;5095791;27;62009;-78
2022/12/28 13:10:58;;;;;;;;;3.00;1.25;;;;;;;;5103112;27;62049;-77
2022/12/28 13:13:29;;;;;;;;;4.00;2.75;;;;;;;;5103982;27;62885;-77
2022/12/28 13:15:58;;;;;;;;;4.00;1.00;;;;;;;;5104482;27;61800;-77
2022/12/28 13:18:23;;;;;;;;;2.00;1.00;;;;;;;;5102993;27;62030;-77
2022/12/28 13:20:55;;;;;;;;;2.00;2.00;;;;;;;;5104216;27;62111;-77
2022/12/28 13:23:21;;;;;;;;;2.75;2.00;;;;;;;;5103808;27;61685;-77
2022/12/28 13:25:48;;;;;;;;;1.00;1.00;;;;;;;;5102459;27;61784;-77
2022/12/28 13:28:34;;;;;;;;;2.00;2.00;;;;;;;;5103853;27;61938;-77
2022/12/28 13:30:59;;;;;;;;;2.25;1.25;;;;;;;;5101933;27;62336;-77
2022/12/28 13:33:24;;;;;;;;;4.50;2.00;;;;;;;;5102621;27;61779;-77
2022/12/28 13:35:49;;;;;;;;;0.25;0.25;;;;;;;;5103358;27;61698;-77
2022/12/28 13:38:17;;;;;;;;;2.50;2.50;;;;;;;;5103251;27;62010;-77
2022/12/28 13:40:52;;;;;;;;;4.50;1.00;;;;;;;;5104066;27;61835;-77
2022/12/28 13:43:23;;;;;;;;;8.50;4.00;;;;;;;;5102084;27;65155;-77
2022/12/28 13:45:51;;;;;;;;;2.00;2.00;;;;;;;;5103110;27;61897;-78
2022/12/28 13:48:17;;;;;;;;;2.50;1.00;;;;;;;;5103525;27;62478;-77
2022/12/28 13:50:42;;;;;;;;;3.25;1.00;;;;;;;;5103995;27;62131;-77
2022/12/28 13:53:12;;;;;;;;;4.00;2.00;;;;;;;;5103358;27;62560;-77
2022/12/28 13:56:03;;;;;;;;;3.50;2.00;;;;;;;;5103361;27;61648;-77
2022/12/28 13:58:36;;;;;;;;;4.50;2.25;;;;;;;;5102445;27;62225;-77
2022/12/28 14:01:03;;;;;;;;;2.25;2.25;;;;;;;;5103777;27;61898;-77
2022/12/28 14:03:29;;;;;;;;;2.00;2.00;;;;;;;;5103108;27;62500;-77
2022/12/28 14:06:00;;;;;;;;;3.00;3.00;;;;;;;;5102125;27;61963;-77
2022/12/28 14:08:27;;;;;;;;;2.75;2.75;;;;;;;;5102492;27;61713;-77
2022/12/28 14:10:53;;;;;;;;;6.25;4.50;;;;;;;;5103401;27;61644;-77
2022/12/28 14:13:19;;;;;;;;;2.25;2.25;;;;;;;;5103108;27;61880;-77
2022/12/28 14:15:44;;;;;;;;;2.00;2.00;;;;;;;;5103035;27;61761;-77
2022/12/28 14:18:13;;;;;;;;;5.00;5.00;;;;;;;;5101856;27;61982;-77
2022/12/28 14:20:49;;;;;;;;;4.50;3.00;;;;;;;;5103558;27;61628;-77
2022/12/28 14:23:18;;;;;;;;;3.75;3.00;;;;;;;;5102914;27;61730;-77
2022/12/28 14:25:43;;;;;;;;;1.75;1.00;;;;;;;;5102774;27;61778;-77
2022/12/28 14:28:13;;;;;;;;;3.50;2.00;;;;;;;;5101686;27;61788;-77
2022/12/28 14:30:40;;;;;;;;;3.00;2.75;;;;;;;;5103543;27;61855;-77
2022/12/28 14:33:13;;;;;;;;;5.75;4.00;;;;;;;;5102991;27;62846;-77
2022/12/28 14:35:44;;;;;;;;;3.00;2.00;;;;;;;;5103247;27;61827;-77
2022/12/28 14:38:13;;;;;;;;;3.00;2.00;;;;;;;;5101628;27;61779;-77
2022/12/28 14:40:38;;;;;;;;;3.00;3.00;;;;;;;;5102985;27;61776;-77
2022/12/28 14:43:17;;;;;;;;;5.00;3.00;;;;;;;;5102321;27;61939;-77
2022/12/28 14:45:46;;;;;;;;;4.00;3.00;;;;;;;;5101878;27;61710;-77
2022/12/28 14:48:20;;;;;;;;;3.00;3.00;;;;;;;;5103135;27;61868;-77
2022/12/28 14:50:56;;;;;;;;;3.00;3.00;;;;;;;;5103026;27;61804;-77
2022/12/28 14:53:22;;;;;;;;;2.00;2.00;;;;;;;;5101326;27;64040;-77
2022/12/28 14:55:57;;;;;;;;;1.75;1.75;;;;;;;;5101206;27;61764;-77
2022/12/28 14:58:25;;;;;;;;;3.00;3.00;;;;;;;;5104759;27;61820;-77
2022/12/28 15:00:57;;;;;;;;;6.50;4.50;;;;;;;;5106847;27;62047;-77
2022/12/28 15:03:27;;;;;;;;;8.50;4.50;;;;;;;;5104568;27;64870;-76
2022/12/28 15:05:53;;;;;;;;;4.50;3.25;;;;;;;;5105226;27;62062;-76
2022/12/28 15:08:19;;;;;;;;;7.00;4.50;;;;;;;;5105336;27;62089;-76
2022/12/28 15:10:47;;;;;;;;;3.50;3.50;;;;;;;;5106338;27;62167;-77
2022/12/28 15:13:12;;;;;;;;;5.75;4.25;;;;;;;;5105765;27;61987;-76
2022/12/28 15:15:37;;;;;;;;;4.00;4.00;;;;;;;;5106573;27;61760;-77
2022/12/28 15:18:03;;;;;;;;;5.25;4.25;;;;;;;;5104826;27;61746;-77